Time;durP1;ratioP1;P1;durP2;ratioP2;P2;SDS_P1;SDS_P2;PMS_P1;PMS_P2;Temp;Humidity;BMP_temperature;BMP_pressure;BME280_temperature;BME280_humidity;BME280_pressure;Samples;Min_cycle;Max_cycle;Signal;HPM_P1;HPM_P2
2023/03/04 00:00:24;;;;;;;27.73;16.63;;;;;;;5.94;100.00;94662.88;5110045;28;20729;-76
2023/03/04 00:02:50;;;;;;;29.20;17.20;;;;;;;6.00;100.00;94662.09;5110693;28;20199;-78
2023/03/04 00:05:18;;;;;;;28.83;17.53;;;;;;;5.92;100.00;94651.94;5111044;28;20209;-78
2023/03/04 00:07:45;;;;;;;28.83;18.60;;;;;;;5.98;100.00;94658.94;5110725;28;20787;-76
2023/03/04 00:10:12;;;;;;;30.53;18.50;;;;;;;6.05;100.00;94653.81;5111260;28;20257;-77
2023/03/04 00:12:39;;;;;;;29.13;17.23;;;;;;;6.13;100.00;94656.25;5110608;28;20251;-78
2023/03/04 00:15:06;;;;;;;29.70;17.53;;;;;;;6.19;100.00;94658.06;5111381;28;20633;-79
2023/03/04 00:17:33;;;;;;;30.53;18.27;;;;;;;6.12;100.00;94650.28;5111201;28;20213;-78
2023/03/04 00:20:00;;;;;;;31.00;17.47;;;;;;;6.16;100.00;94650.69;5110957;28;20199;-77
2023/03/04 00:22:28;;;;;;;28.97;16.83;;;;;;;6.20;100.00;94654.50;5110608;28;20191;-77
2023/03/04 00:24:55;;;;;;;25.43;16.40;;;;;;;6.22;100.00;94649.94;5110547;28;20208;-78
2023/03/04 00:27:22;;;;;;;29.17;16.93;;;;;;;6.26;100.00;94644.19;5110918;28;20630;-77
2023/03/04 00:29:48;;;;;;;29.53;17.20;;;;;;;6.29;100.00;94645.63;5111348;28;20261;-78
2023/03/04 00:32:17;;;;;;;28.90;16.37;;;;;;;6.30;100.00;94642.03;5111666;28;20200;-78
2023/03/04 00:34:43;;;;;;;26.73;16.23;;;;;;;6.21;100.00;94627.69;5111276;28;20811;-78
2023/03/04 00:37:10;;;;;;;28.37;16.17;;;;;;;6.32;100.00;94636.69;5111813;28;20196;-78
2023/03/04 00:39:38;;;;;;;27.93;16.37;;;;;;;6.27;100.00;94643.22;5111679;28;20207;-78
2023/03/04 00:42:05;;;;;;;26.43;16.07;;;;;;;6.36;100.00;94640.47;5111494;28;20199;-78
2023/03/04 00:44:32;;;;;;;27.37;15.67;;;;;;;6.38;100.00;94638.50;5111724;28;20202;-78
2023/03/04 00:46:59;;;;;;;27.80;15.43;;;;;;;6.41;100.00;94638.09;5111441;28;20674;-78
2023/03/04 00:49:26;;;;;;;23.87;13.90;;;;;;;6.39;100.00;94635.72;5111535;28;20573;-77
2023/03/04 00:51:53;;;;;;;22.43;14.20;;;;;;;6.34;100.00;94635.50;5111515;28;20191;-77
2023/03/04 00:54:20;;;;;;;21.80;13.17;;;;;;;6.34;100.00;94638.09;5110904;28;20212;-77
2023/03/04 00:56:48;;;;;;;21.53;13.10;;;;;;;6.38;100.00;94633.34;5111192;28;20184;-78
2023/03/04 00:59:15;;;;;;;20.13;12.87;;;;;;;6.37;100.00;94642.06;5110745;28;20207;-77
2023/03/04 01:01:42;;;;;;;19.17;12.30;;;;;;;6.23;100.00;94636.84;5111311;28;20196;-77
2023/03/04 01:04:08;;;;;;;22.23;13.43;;;;;;;6.12;100.00;94639.16;5111611;28;20195;-77
2023/03/04 01:06:35;;;;;;;25.27;14.00;;;;;;;5.99;100.00;94631.34;5112352;28;20224;-77
2023/03/04 01:09:02;;;;;;;22.53;12.60;;;;;;;5.94;100.00;94631.16;5112269;28;20198;-78
2023/03/04 01:11:29;;;;;;;21.83;13.37;;;;;;;6.01;100.00;94634.53;5112308;28;20195;-76
2023/03/04 01:14:06;;;;;;;24.23;13.80;;;;;;;6.00;100.00;94638.13;5112410;28;20196;-77
2023/03/04 01:16:33;;;;;;;27.57;15.87;;;;;;;5.97;100.00;94623.81;5111892;28;20183;-78
2023/03/04 01:19:00;;;;;;;25.40;15.43;;;;;;;6.08;100.00;94619.91;5111224;28;20577;-77
2023/03/04 01:21:32;;;;;;;25.00;15.00;;;;;;;6.04;100.00;94616.91;5110842;28;20203;-78
2023/03/04 01:24:02;;;;;;;24.30;14.67;;;;;;;6.10;100.00;94623.88;5110767;28;20203;-79
2023/03/04 01:26:29;;;;;;;22.00;13.80;;;;;;;5.97;100.00;94616.09;5111067;28;20222;-78
2023/03/04 01:28:57;;;;;;;22.57;13.40;;;;;;;5.83;100.00;94611.00;5110623;28;20227;-78
2023/03/04 01:31:24;;;;;;;25.83;13.97;;;;;;;5.86;100.00;94610.66;5110584;28;20200;-78
2023/03/04 01:33:50;;;;;;;22.17;13.50;;;;;;;6.01;100.00;94619.06;5113008;28;20192;-79
2023/03/04 01:36:17;;;;;;;24.37;14.00;;;;;;;6.10;100.00;94616.16;5114185;28;20185;-79
2023/03/04 01:38:44;;;;;;;24.67;12.93;;;;;;;5.97;100.00;94612.72;5114529;28;20273;-77
2023/03/04 01:41:13;;;;;;;22.33;13.90;;;;;;;5.91;100.00;94613.47;5114263;28;20576;-77
2023/03/04 01:43:40;;;;;;;25.53;14.43;;;;;;;5.92;100.00;94604.72;5113930;28;20191;-78
2023/03/04 01:46:13;;;;;;;22.63;13.77;;;;;;;5.99;100.00;94601.22;5114513;28;20196;-77
2023/03/04 01:48:41;;;;;;;21.30;13.20;;;;;;;6.11;100.00;94601.47;5114315;28;20650;-77
2023/03/04 01:51:14;;;;;;;21.67;13.33;;;;;;;6.15;100.00;94603.47;5113869;28;20249;-77
2023/03/04 01:53:41;;;;;;;19.87;12.83;;;;;;;6.15;100.00;94600.88;5113937;28;20210;-77
2023/03/04 01:56:15;;;;;;;21.87;13.43;;;;;;;6.08;100.00;94591.53;5113572;28;20188;-77
2023/03/04 01:58:42;;;;;;;22.47;13.30;;;;;;;6.09;100.00;94608.59;5095324;28;20231;-77
2023/03/04 02:01:11;;;;;;;20.90;12.87;;;;;;;5.80;100.00;94591.53;5114578;28;20211;-78
2023/03/04 02:03:38;;;;;;;21.43;12.97;;;;;;;5.78;100.00;94595.28;5114135;28;20191;-77
2023/03/04 02:06:05;;;;;;;23.60;13.90;;;;;;;5.82;100.00;94592.16;5113750;28;20213;-77
2023/03/04 02:08:32;;;;;;;24.57;14.20;;;;;;;5.80;100.00;94598.50;5113997;28;20226;-78
2023/03/04 02:10:59;;;;;;;24.83;14.10;;;;;;;5.84;100.00;94592.75;5113807;28;20202;-77
2023/03/04 02:13:26;;;;;;;24.40;15.37;;;;;;;5.87;100.00;94589.84;5113528;28;20202;-77
2023/03/04 02:15:53;;;;;;;23.53;14.70;;;;;;;5.92;100.00;94594.41;5114092;28;20195;-78
2023/03/04 02:18:24;;;;;;;25.10;14.87;;;;;;;5.96;100.00;94599.00;5113336;28;20191;-78
2023/03/04 02:21:00;;;;;;;26.00;15.20;;;;;;;5.76;100.00;94572.28;5113784;28;20203;-77
2023/03/04 02:23:33;;;;;;;23.77;14.37;;;;;;;5.82;100.00;94586.22;5113406;28;20199;-78
2023/03/04 02:26:16;;;;;;;26.37;15.20;;;;;;;5.82;100.00;94589.59;5113073;28;20191;-78
2023/03/04 02:28:44;;;;;;;28.23;15.00;;;;;;;5.68;100.00;94586.13;5113825;28;20223;-78
2023/03/04 02:31:22;;;;;;;26.53;14.83;;;;;;;5.65;100.00;94586.53;5113470;28;20210;-76
2023/03/04 02:33:50;;;;;;;25.43;16.13;;;;;;;5.69;100.00;94584.34;5113248;28;20191;-77
2023/03/04 02:36:16;;;;;;;24.60;15.80;;;;;;;5.68;100.00;94590.50;5113118;28;20199;-77
2023/03/04 02:38:43;;;;;;;23.83;14.53;;;;;;;5.64;100.00;94577.19;5112451;28;20926;-77
2023/03/04 02:41:14;;;;;;;24.77;15.27;;;;;;;5.78;100.00;94584.97;5112796;28;20253;-76
2023/03/04 02:43:50;;;;;;;25.37;15.57;;;;;;;5.84;100.00;94579.06;5112879;28;20198;-77
2023/03/04 02:46:17;;;;;;;23.77;14.93;;;;;;;5.97;100.00;94581.75;5113068;28;20199;-78
2023/03/04 02:48:44;;;;;;;27.80;17.20;;;;;;;5.76;100.00;94571.50;5113485;28;20220;-78
2023/03/04 02:51:11;;;;;;;28.00;16.73;;;;;;;5.50;100.00;94564.41;5114027;28;20204;-78
2023/03/04 02:53:38;;;;;;;30.97;17.73;;;;;;;5.37;100.00;94562.53;5113012;28;20202;-77
2023/03/04 02:56:06;;;;;;;28.13;16.50;;;;;;;5.40;100.00;94562.16;5113337;28;20203;-77
2023/03/04 02:58:32;;;;;;;24.73;15.50;;;;;;;5.41;100.00;94561.19;5113302;28;20251;-78
2023/03/04 03:01:01;;;;;;;25.17;15.63;;;;;;;5.42;100.00;94560.22;5112976;28;20196;-78
2023/03/04 03:03:28;;;;;;;29.63;16.93;;;;;;;5.50;100.00;94561.84;5113059;28;20195;-78
2023/03/04 03:05:54;;;;;;;27.67;16.43;;;;;;;5.57;100.00;94565.25;5112946;28;20301;-77
2023/03/04 03:08:21;;;;;;;30.07;18.30;;;;;;;5.63;100.00;94567.06;5112413;28;20215;-77
2023/03/04 03:10:48;;;;;;;26.83;17.13;;;;;;;5.66;100.00;94572.63;5112660;28;20201;-77
2023/03/04 03:13:15;;;;;;;30.03;17.43;;;;;;;5.60;100.00;94582.88;5112523;28;20202;-77
2023/03/04 03:15:42;;;;;;;29.23;17.57;;;;;;;5.62;100.00;94568.06;5112340;28;20210;-77
2023/03/04 03:18:10;;;;;;;28.03;16.77;;;;;;;5.59;100.00;94574.38;5112593;28;20203;-77
2023/03/04 03:20:37;;;;;;;30.60;17.47;;;;;;;5.62;100.00;94571.44;5112170;28;20203;-77
2023/03/04 03:23:04;;;;;;;26.27;16.07;;;;;;;5.72;100.00;94576.22;5112367;28;20678;-78
2023/03/04 03:25:31;;;;;;;25.80;16.47;;;;;;;5.74;100.00;94580.22;5112754;28;20188;-77
2023/03/04 03:27:58;;;;;;;29.87;17.10;;;;;;;5.77;100.00;94570.53;5111921;28;20224;-78
2023/03/04 03:30:24;;;;;;;28.20;16.33;;;;;;;5.80;100.00;94573.50;5112490;28;20202;-79
2023/03/04 03:32:51;;;;;;;26.87;16.23;;;;;;;5.76;100.00;94577.44;5113114;28;20195;-79
2023/03/04 03:35:19;;;;;;;27.70;16.27;;;;;;;5.70;100.00;94567.91;5112513;28;20669;-80
2023/03/04 03:37:47;;;;;;;28.63;15.90;;;;;;;5.59;100.00;94569.25;5112873;28;20188;-80
2023/03/04 03:40:15;;;;;;;30.23;16.30;;;;;;;5.57;100.00;94568.59;5112973;28;20195;-80
2023/03/04 03:42:42;;;;;;;26.63;15.60;;;;;;;5.44;100.00;94544.53;5112239;28;20203;-80
2023/03/04 03:45:09;;;;;;;27.60;16.47;;;;;;;5.52;100.00;94562.44;5112469;28;20270;-81
2023/03/04 03:47:36;;;;;;;28.53;16.70;;;;;;;5.47;100.00;94567.38;5112265;28;20272;-80
2023/03/04 03:50:04;;;;;;;29.53;15.90;;;;;;;5.35;100.00;94555.97;5112015;28;20194;-80
2023/03/04 03:52:32;;;;;;;28.03;15.97;;;;;;;5.33;100.00;94556.19;5112822;28;20202;-80
2023/03/04 03:55:00;;;;;;;27.90;16.13;;;;;;;5.33;100.00;94556.19;5111884;28;20196;-80
2023/03/04 03:57:27;;;;;;;27.63;16.37;;;;;;;5.27;100.00;94550.97;5111591;28;20223;-80
2023/03/04 03:59:54;;;;;;;26.37;16.10;;;;;;;5.37;100.00;94566.91;5111976;28;20369;-79
2023/03/04 04:02:21;;;;;;;30.23;16.20;;;;;;;5.31;100.00;94540.09;5111871;28;20195;-80
2023/03/04 04:04:48;;;;;;;31.50;17.13;;;;;;;5.31;100.00;94542.66;5111887;28;20224;-80
2023/03/04 04:07:15;;;;;;;26.73;16.40;;;;;;;5.27;100.00;94531.16;5111539;28;20212;-79
2023/03/04 04:09:44;;;;;;;27.23;16.83;;;;;;;5.44;100.00;94544.53;5112175;28;20613;-80
2023/03/04 04:12:13;;;;;;;30.43;16.57;;;;;;;5.46;100.00;94547.72;5112795;28;20634;-80
2023/03/04 04:14:40;;;;;;;29.73;16.50;;;;;;;5.38;100.00;94547.88;5112316;28;20670;-79
2023/03/04 04:17:07;;;;;;;27.63;16.30;;;;;;;5.33;100.00;94543.28;5112221;28;20195;-79
2023/03/04 04:19:34;;;;;;;26.97;16.10;;;;;;;5.34;100.00;94542.28;5112268;28;20195;-79
2023/03/04 04:22:01;;;;;;;30.87;18.17;;;;;;;5.30;100.00;94546.25;5112029;28;20194;-79
2023/03/04 04:24:27;;;;;;;29.77;17.30;;;;;;;5.24;100.00;94546.19;5110657;28;20362;-79
2023/03/04 04:26:56;;;;;;;29.17;17.83;;;;;;;5.23;100.00;94545.41;5111249;28;20205;-76
2023/03/04 04:29:23;;;;;;;31.77;19.43;;;;;;;5.15;100.00;94543.78;5111912;28;20180;-78
2023/03/04 04:31:50;;;;;;;36.20;20.60;;;;;;;5.06;100.00;94544.88;5111770;28;20202;-78
2023/03/04 04:34:17;;;;;;;37.27;20.90;;;;;;;5.02;100.00;94548.03;5111868;28;20234;-78
2023/03/04 04:36:43;;;;;;;32.13;19.10;;;;;;;5.08;100.00;94550.63;5111187;28;20593;-78
2023/03/04 04:39:10;;;;;;;31.17;19.93;;;;;;;5.09;100.00;94543.72;5111240;28;20191;-78
2023/03/04 04:41:39;;;;;;;31.87;19.73;;;;;;;5.05;100.00;94542.50;5111268;28;20204;-78
2023/03/04 04:44:09;;;;;;;33.57;20.90;;;;;;;4.99;100.00;94543.25;5111592;28;20259;-78
2023/03/04 04:46:36;;;;;;;36.03;21.87;;;;;;;4.94;100.00;94550.72;5111580;28;20717;-77
2023/03/04 04:49:04;;;;;;;33.27;21.33;;;;;;;4.86;100.00;94540.56;5111404;28;20217;-78
2023/03/04 04:51:31;;;;;;;39.93;22.20;;;;;;;4.92;100.00;94552.69;5111048;28;20198;-77
2023/03/04 04:53:59;;;;;;;37.70;21.37;;;;;;;4.77;100.00;94549.38;5111556;28;20193;-77
2023/03/04 04:56:26;;;;;;;39.43;22.47;;;;;;;4.73;100.00;94546.41;5111064;28;20259;-78
2023/03/04 04:58:54;;;;;;;36.43;22.93;;;;;;;4.65;100.00;94556.03;5111628;28;20221;-77
2023/03/04 05:01:22;;;;;;;39.03;22.73;;;;;;;4.72;100.00;94554.28;5111282;28;20647;-78
2023/03/04 05:03:52;;;;;;;35.67;21.53;;;;;;;4.66;100.00;94560.97;5111323;28;20194;-79
2023/03/04 05:06:19;;;;;;;45.73;22.30;;;;;;;4.51;100.00;94565.38;5111651;28;20285;-79
2023/03/04 05:08:46;;;;;;;34.47;20.30;;;;;;;4.51;100.00;94571.31;5114793;28;20253;-80
2023/03/04 05:11:13;;;;;;;34.97;19.43;;;;;;;4.43;100.00;94568.88;5114971;28;20539;-79
2023/03/04 05:13:40;;;;;;;38.73;21.20;;;;;;;4.40;100.00;94566.66;5114775;28;20192;-78
2023/03/04 05:16:08;;;;;;;38.03;21.43;;;;;;;4.36;100.00;94577.47;5114882;28;20198;-79
2023/03/04 05:18:36;;;;;;;37.67;22.30;;;;;;;4.39;100.00;94572.78;5115302;28;20193;-79
2023/03/04 05:21:04;;;;;;;36.43;21.80;;;;;;;4.43;100.00;94573.22;5115165;28;20189;-79
2023/03/04 05:23:33;;;;;;;40.53;21.47;;;;;;;4.46;100.00;94580.56;5114982;28;20206;-77
2023/03/04 05:25:59;;;;;;;40.77;21.93;;;;;;;4.45;100.00;94582.34;5115044;28;20206;-78
2023/03/04 05:28:27;;;;;;;35.93;20.97;;;;;;;4.51;100.00;94586.75;5114287;28;20245;-78
2023/03/04 05:30:54;;;;;;;33.47;20.03;;;;;;;4.50;100.00;94589.53;5114117;28;20193;-77
2023/03/04 05:33:21;;;;;;;45.77;22.37;;;;;;;4.51;100.00;94578.25;5113876;28;20208;-77
2023/03/04 05:35:50;;;;;;;40.23;21.83;;;;;;;4.61;100.00;94590.81;5114363;28;20204;-79
2023/03/04 05:38:19;;;;;;;36.07;21.50;;;;;;;4.67;100.00;94590.09;5114789;28;20208;-79
2023/03/04 05:40:46;;;;;;;40.67;21.90;;;;;;;4.81;100.00;94591.81;5114664;28;20677;-78
2023/03/04 05:43:13;;;;;;;35.27;20.63;;;;;;;4.80;100.00;94582.47;5114588;28;20218;-79
2023/03/04 05:45:40;;;;;;;35.67;21.20;;;;;;;4.84;100.00;94588.88;5114645;28;20201;-79
2023/03/04 05:48:08;;;;;;;36.80;21.20;;;;;;;4.72;100.00;94574.88;5114571;28;20220;-78
2023/03/04 05:50:35;;;;;;;36.27;19.23;;;;;;;4.68;100.00;94594.25;5114722;28;20193;-78
2023/03/04 05:53:04;;;;;;;39.37;20.37;;;;;;;4.62;100.00;94595.00;5114294;28;20193;-78
2023/03/04 05:55:30;;;;;;;30.40;18.20;;;;;;;4.40;100.00;94591.59;5114212;28;20660;-79
2023/03/04 05:57:58;;;;;;;28.27;17.60;;;;;;;4.43;100.00;94599.75;5114174;28;20191;-79
2023/03/04 06:00:25;;;;;;;24.07;16.00;;;;;;;4.40;100.00;94586.44;5114507;28;20235;-78
2023/03/04 06:02:52;;;;;;;28.40;16.73;;;;;;;4.48;100.00;94594.03;5114061;28;20665;-78
2023/03/04 06:05:20;;;;;;;30.03;17.27;;;;;;;4.70;100.00;94615.47;5114006;28;20192;-80
2023/03/04 06:07:47;;;;;;;26.40;15.53;;;;;;;4.79;100.00;94609.22;5113913;28;20221;-78
2023/03/04 06:10:16;;;;;;;28.47;16.00;;;;;;;4.82;100.00;94603.72;5114082;28;20198;-79
2023/03/04 06:12:43;;;;;;;26.50;16.37;;;;;;;4.90;100.00;94608.72;5113482;28;20201;-79
2023/03/04 06:15:11;;;;;;;28.10;16.73;;;;;;;4.93;100.00;94606.59;5113853;28;20217;-79
2023/03/04 06:17:39;;;;;;;30.93;19.17;;;;;;;5.03;100.00;94608.84;5114042;28;20193;-79
2023/03/04 06:20:07;;;;;;;33.80;20.00;;;;;;;5.12;100.00;94615.44;5113220;28;20203;-79
2023/03/04 06:22:35;;;;;;;42.33;20.67;;;;;;;5.22;100.00;94610.00;5113995;28;20212;-79
2023/03/04 06:25:01;;;;;;;34.63;20.27;;;;;;;5.31;100.00;94617.38;5113624;28;20558;-79
2023/03/04 06:27:30;;;;;;;35.30;19.50;;;;;;;5.45;100.00;94615.72;5113331;28;20218;-78
2023/03/04 06:29:56;;;;;;;36.50;19.23;;;;;;;5.49;100.00;94617.72;5113934;28;20207;-79
2023/03/04 06:32:23;;;;;;;31.27;18.50;;;;;;;5.58;100.00;94624.34;5113456;28;20205;-79
2023/03/04 06:34:50;;;;;;;33.83;18.93;;;;;;;5.56;100.00;94597.97;5113323;28;20200;-78
2023/03/04 06:37:17;;;;;;;35.97;21.97;;;;;;;5.82;100.00;94615.38;5113782;28;20244;-78
2023/03/04 06:39:44;;;;;;;43.23;27.53;;;;;;;5.95;100.00;94618.03;5112850;28;20195;-78
2023/03/04 06:42:11;;;;;;;47.33;25.90;;;;;;;6.01;100.00;94627.59;5112848;28;20205;-78
2023/03/04 06:44:40;;;;;;;34.77;22.80;;;;;;;6.06;100.00;94625.25;5113917;28;20198;-78
2023/03/04 06:47:07;;;;;;;37.20;22.63;;;;;;;6.14;100.00;94616.56;5113084;28;20206;-77
2023/03/04 06:49:33;;;;;;;40.27;24.10;;;;;;;6.28;100.00;94628.53;5113250;28;20215;-78
2023/03/04 06:52:00;;;;;;;37.70;22.23;;;;;;;6.38;100.00;94626.38;5112960;28;20203;-77
2023/03/04 06:54:27;;;;;;;33.93;20.60;;;;;;;6.35;100.00;94611.28;5112944;28;20203;-77
2023/03/04 06:56:54;;;;;;;36.47;20.50;;;;;;;6.37;100.00;94631.75;5112371;28;20206;-78
2023/03/04 06:59:21;;;;;;;35.60;20.33;;;;;;;6.28;100.00;94637.06;5112640;28;20562;-79
2023/03/04 07:01:49;;;;;;;33.43;18.63;;;;;;;6.29;100.00;94624.97;5112937;28;20604;-85
2023/03/04 07:04:16;;;;;;;26.67;14.67;;;;;;;6.24;100.00;94635.84;5112486;28;20268;-78
2023/03/04 07:06:43;;;;;;;21.57;13.10;;;;;;;5.98;100.00;94635.72;5112709;28;20202;-77
2023/03/04 07:09:10;;;;;;;23.07;12.93;;;;;;;5.85;100.00;94635.66;5112726;28;20219;-77
2023/03/04 07:11:37;;;;;;;23.43;11.20;;;;;;;5.79;100.00;94633.00;5112703;28;20207;-77
2023/03/04 07:14:03;;;;;;;18.23;11.03;;;;;;;5.67;100.00;94640.44;5112785;28;20200;-77
2023/03/04 07:16:30;;;;;;;19.43;12.10;;;;;;;5.73;100.00;94637.94;5112329;28;20198;-76
2023/03/04 07:18:58;;;;;;;19.93;11.77;;;;;;;5.78;100.00;94632.19;5112587;28;20195;-76
2023/03/04 07:21:26;;;;;;;24.80;13.80;;;;;;;5.84;100.00;94641.75;5112574;28;20195;-77
2023/03/04 07:23:53;;;;;;;25.80;13.93;;;;;;;5.97;100.00;94641.09;5112216;28;20192;-77
2023/03/04 07:26:20;;;;;;;24.20;12.70;;;;;;;5.99;100.00;94639.09;5112734;28;20203;-78
2023/03/04 07:28:47;;;;;;;21.17;12.53;;;;;;;6.00;100.00;94648.44;5112268;28;20227;-77
2023/03/04 07:31:21;;;;;;;25.87;12.93;;;;;;;6.06;100.00;94645.88;5111386;28;20203;-78
2023/03/04 07:33:47;;;;;;;22.90;12.93;;;;;;;6.24;100.00;94643.59;5112686;28;20183;-78
2023/03/04 07:36:18;;;;;;;23.70;13.77;;;;;;;6.50;100.00;94639.53;5112800;28;20200;-78
2023/03/04 07:38:46;;;;;;;21.90;13.17;;;;;;;6.61;100.00;94642.34;5105485;28;20185;-78
2023/03/04 07:41:13;;;;;;;22.93;13.47;;;;;;;6.72;100.00;94641.78;5109254;28;20217;-78
2023/03/04 07:43:40;;;;;;;23.57;12.23;;;;;;;6.88;100.00;94647.59;5111279;28;20291;-79
2023/03/04 07:46:08;;;;;;;27.73;11.57;;;;;;;6.92;100.00;94644.44;5111521;28;20219;-78
2023/03/04 07:48:36;;;;;;;20.37;11.17;;;;;;;6.91;100.00;94639.44;5111424;28;20220;-78
2023/03/04 07:51:05;;;;;;;20.57;11.40;;;;;;;6.99;100.00;94634.09;5111259;28;20199;-79
2023/03/04 07:53:34;;;;;;;23.53;11.97;;;;;;;7.11;100.00;94632.53;5112486;28;20200;-81
2023/03/04 07:56:03;;;;;;;18.30;11.73;;;;;;;7.14;100.00;94640.69;5112378;28;20278;-80
2023/03/04 07:58:31;;;;;;;21.97;12.17;;;;;;;7.03;100.00;94641.28;5111842;28;20279;-79
2023/03/04 08:00:58;;;;;;;25.60;13.20;;;;;;;7.01;100.00;94639.88;5112487;28;20196;-80
2023/03/04 08:03:25;;;;;;;25.13;12.17;;;;;;;6.99;100.00;94632.31;5111660;28;20185;-81
2023/03/04 08:05:52;;;;;;;20.20;11.83;;;;;;;7.13;100.00;94638.31;5111825;28;20272;-82
2023/03/04 08:08:19;;;;;;;21.50;12.27;;;;;;;7.17;100.00;94636.91;5111933;28;20192;-81
2023/03/04 08:10:47;;;;;;;22.70;11.57;;;;;;;7.25;100.00;94640.09;5112051;28;20199;-80
2023/03/04 08:13:14;;;;;;;19.03;11.50;;;;;;;7.39;100.00;94640.91;5111997;28;20192;-82
2023/03/04 08:15:42;;;;;;;19.17;10.97;;;;;;;7.47;100.00;94638.13;5111743;28;20685;-84
2023/03/04 08:18:09;;;;;;;21.77;12.40;;;;;;;7.50;100.00;94634.34;5095521;28;20195;-84
2023/03/04 08:20:36;;;;;;;24.03;13.13;;;;;;;7.45;100.00;94632.34;5111510;28;20192;-84
2023/03/04 08:23:03;;;;;;;31.83;18.90;;;;;;;7.49;100.00;94637.94;5112657;28;20571;-86
2023/03/04 08:25:30;;;;;;;29.30;18.27;;;;;;;7.43;100.00;94642.09;5112494;28;20196;-84
2023/03/04 08:27:59;;;;;;;43.40;24.17;;;;;;;7.46;100.00;94640.91;5112639;28;20224;-84
2023/03/04 08:30:26;;;;;;;40.10;23.87;;;;;;;7.45;100.00;94640.09;5112097;28;20223;-83
2023/03/04 08:32:52;;;;;;;31.90;20.00;;;;;;;7.21;100.00;94633.75;5112102;28;20191;-84
2023/03/04 08:35:19;;;;;;;28.47;14.30;;;;;;;6.99;100.00;94631.50;5112141;28;20196;-80
2023/03/04 08:37:46;;;;;;;26.17;14.30;;;;;;;6.99;100.00;94624.56;5112366;28;20218;-83
2023/03/04 08:40:14;;;;;;;20.40;11.30;;;;;;;7.18;100.00;94631.56;5112305;28;20203;-82
2023/03/04 08:42:41;;;;;;;21.47;11.57;;;;;;;7.29;100.00;94627.59;5114166;28;20192;-82
2023/03/04 08:45:11;;;;;;;24.03;12.77;;;;;;;7.41;100.00;94623.41;5118001;28;20199;-83
2023/03/04 08:47:39;;;;;;;23.30;11.70;;;;;;;7.44;100.00;94635.94;5131050;28;20212;-83
2023/03/04 08:50:07;;;;;;;20.63;11.13;;;;;;;7.34;100.00;94631.16;5125185;28;20216;-83
2023/03/04 08:52:34;;;;;;;20.10;10.43;;;;;;;7.42;100.00;94625.78;5118525;28;20196;-81
2023/03/04 08:55:01;;;;;;;22.53;12.47;;;;;;;7.47;100.00;94630.38;5118354;28;20196;-81
2023/03/04 08:57:28;;;;;;;26.90;13.10;;;;;;;7.49;100.00;94618.03;5117343;28;20192;-82
2023/03/04 08:59:55;;;;;;;22.40;10.83;;;;;;;7.43;100.00;94622.22;5116031;28;20718;-77
2023/03/04 09:02:23;;;;;;;21.67;10.53;;;;;;;7.56;100.00;94631.75;5116223;28;20192;-77
2023/03/04 09:04:50;;;;;;;19.60;10.73;;;;;;;7.64;100.00;94626.41;5116430;28;20204;-77
2023/03/04 09:07:17;;;;;;;27.53;12.07;;;;;;;7.54;100.00;94612.25;5117657;28;20210;-78
2023/03/04 09:09:43;;;;;;;24.90;11.97;;;;;;;7.75;99.42;94615.44;5115251;28;20220;-79
2023/03/04 09:12:10;;;;;;;24.57;11.83;;;;;;;7.93;99.86;94620.78;5113314;28;20265;-78
2023/03/04 09:14:37;;;;;;;19.63;11.03;;;;;;;8.07;99.35;94616.38;5114706;28;20200;-78
2023/03/04 09:17:08;;;;;;;18.37;10.63;;;;;;;8.25;98.54;94606.16;5115478;28;20572;-78
2023/03/04 09:19:37;;;;;;;21.77;10.07;;;;;;;8.62;97.97;94614.22;5116946;28;20203;-77
2023/03/04 09:22:04;;;;;;;19.60;10.30;;;;;;;8.86;97.94;94610.91;5115444;28;20252;-77
2023/03/04 09:24:31;;;;;;;19.13;11.10;;;;;;;8.88;96.92;94612.28;5114995;28;20212;-77
2023/03/04 09:26:57;;;;;;;24.27;13.17;;;;;;;8.85;97.03;94611.91;5114295;28;20247;-76
2023/03/04 09:29:24;;;;;;;23.17;13.20;;;;;;;8.93;95.07;94612.44;5114758;28;20220;-77
2023/03/04 09:31:51;;;;;;;24.83;13.17;;;;;;;8.88;93.34;94611.47;5114292;28;20196;-77
2023/03/04 09:34:18;;;;;;;19.50;12.63;;;;;;;8.87;94.48;94609.88;5114741;28;20199;-77
2023/03/04 09:36:46;;;;;;;26.40;13.47;;;;;;;8.72;95.24;94602.38;5114537;28;20236;-78
2023/03/04 09:39:13;;;;;;;24.50;12.87;;;;;;;8.78;97.29;94603.34;5113971;28;20584;-77
2023/03/04 09:41:42;;;;;;;19.93;12.17;;;;;;;8.78;95.94;94596.38;5113935;28;20207;-78
2023/03/04 09:44:21;;;;;;;24.10;12.53;;;;;;;8.73;96.63;94598.81;5114603;28;20203;-78
2023/03/04 09:46:49;;;;;;;21.60;12.17;;;;;;;8.85;96.66;94607.53;5113902;28;20244;-77
2023/03/04 09:49:18;;;;;;;25.40;12.53;;;;;;;8.79;96.87;94599.78;5113985;28;20212;-78
2023/03/04 09:51:55;;;;;;;23.97;13.83;;;;;;;8.88;96.59;94588.16;5114153;28;20199;-78
2023/03/04 09:54:33;;;;;;;29.47;13.83;;;;;;;8.96;96.44;94593.09;5113270;28;20238;-78
2023/03/04 09:57:19;;;;;;;21.60;13.10;;;;;;;9.08;95.03;94594.00;5113956;28;20184;-78
2023/03/04 09:59:52;;;;;;;25.67;13.30;;;;;;;9.10;95.29;94592.78;5113868;28;20176;-79
2023/03/04 10:02:29;;;;;;;25.93;13.60;;;;;;;9.13;95.66;94588.97;5114101;28;20202;-78
2023/03/04 10:05:01;;;;;;;21.50;13.37;;;;;;;9.13;95.66;94591.56;5114458;28;20198;-78
2023/03/04 10:07:36;;;;;;;25.33;14.20;;;;;;;9.21;95.98;94585.31;5114674;28;20530;-78
2023/03/04 10:10:10;;;;;;;25.63;14.40;;;;;;;9.21;94.62;94578.34;5114256;28;20200;-80
2023/03/04 10:12:42;;;;;;;26.70;13.20;;;;;;;9.28;95.39;94580.91;5114435;28;20715;-79
2023/03/04 10:15:22;;;;;;;27.83;13.20;;;;;;;9.34;96.08;94559.31;5114511;28;20203;-79
2023/03/04 10:17:56;;;;;;;24.80;12.73;;;;;;;9.65;94.28;94569.59;5114335;28;20183;-84
2023/03/04 10:20:28;;;;;;;23.53;12.40;;;;;;;9.82;93.22;94581.03;5114424;28;20184;-88
2023/03/04 10:23:08;;;;;;;25.77;12.70;;;;;;;9.76;91.38;94571.50;5114028;28;20287;-83
2023/03/04 10:25:38;;;;;;;22.30;12.17;;;;;;;9.89;93.09;94570.56;5114526;28;20624;-82
2023/03/04 10:28:15;;;;;;;21.53;12.13;;;;;;;9.94;92.85;94568.91;5114048;28;20231;-82
2023/03/04 10:30:49;;;;;;;20.73;11.47;;;;;;;10.15;92.98;94568.53;5114218;28;20265;-76
2023/03/04 10:33:19;;;;;;;23.17;12.63;;;;;;;10.27;92.49;94568.59;5113972;28;20199;-82
2023/03/04 10:35:51;;;;;;;22.00;12.00;;;;;;;10.39;90.24;94561.63;5114051;28;20192;-82
2023/03/04 10:38:20;;;;;;;20.17;12.00;;;;;;;10.25;90.10;94553.22;5114156;28;20196;-82
2023/03/04 10:40:47;;;;;;;21.23;11.30;;;;;;;10.25;88.76;94544.63;5114068;28;20220;-82
2023/03/04 10:43:18;;;;;;;23.33;12.43;;;;;;;10.08;89.60;94544.41;5113708;28;20230;-82
2023/03/04 10:45:47;;;;;;;19.73;12.60;;;;;;;10.03;89.62;94544.25;5113965;28;20658;-82
2023/03/04 10:48:23;;;;;;;25.00;12.73;;;;;;;9.93;90.20;94538.78;5113959;28;20199;-84
2023/03/04 10:50:50;;;;;;;29.00;13.23;;;;;;;9.87;91.62;94534.44;5113520;28;20223;-84
2023/03/04 10:53:33;;;;;;;24.17;14.63;;;;;;;9.70;92.57;94523.03;5113380;28;20195;-86
2023/03/04 10:56:08;;;;;;;25.73;13.53;;;;;;;9.72;91.62;94526.25;5114024;28;20574;-85
2023/03/04 10:58:35;;;;;;;25.13;13.20;;;;;;;9.55;92.96;94501.88;5113801;28;20184;-85
2023/03/04 11:01:06;;;;;;;24.17;13.47;;;;;;;9.54;93.01;94515.84;5113955;28;20191;-88
2023/03/04 11:03:35;;;;;;;25.77;14.30;;;;;;;9.61;92.73;94517.34;5114169;28;20187;-87
2023/03/04 11:06:17;;;;;;;27.93;13.90;;;;;;;9.65;92.60;94517.72;5113724;28;20196;-87
2023/03/04 11:08:53;;;;;;;24.03;13.37;;;;;;;9.66;93.13;94506.34;5113871;28;20184;-86
2023/03/04 11:11:25;;;;;;;20.83;12.50;;;;;;;9.70;92.44;94502.28;5113640;28;20198;-87
2023/03/04 11:13:57;;;;;;;25.77;13.57;;;;;;;9.77;93.13;94510.00;5113158;28;20196;-84
2023/03/04 11:16:26;;;;;;;27.57;13.20;;;;;;;9.67;92.62;94498.31;5113232;28;20696;-84
2023/03/04 11:18:58;;;;;;;25.17;13.10;;;;;;;9.63;92.89;94492.00;5113484;28;20203;-85
2023/03/04 11:21:28;;;;;;;26.03;13.40;;;;;;;9.64;92.06;94488.38;5113842;28;20188;-85
2023/03/04 11:24:00;;;;;;;20.93;13.00;;;;;;;9.59;93.69;94480.47;5113591;28;20208;-85